Time;durP1;ratioP1;P1;durP2;ratioP2;P2;SDS_P1;SDS_P2;PMS_P1;PMS_P2;Temp;Humidity;BMP_temperature;BMP_pressure;BME280_temperature;BME280_humidity;BME280_pressure;Samples;Min_cycle;Max_cycle;Signal;HPM_P1;HPM_P2
2022/12/18 00:02:10;;;;;;;51.10;23.80;;;;;;;-3.31;100.00;102852.94;4989178;28;20054;-65
2022/12/18 00:04:37;;;;;;;55.67;23.45;;;;;;;-3.38;100.00;102854.69;4985890;28;20129;-65
2022/12/18 00:07:03;;;;;;;46.72;22.23;;;;;;;-3.43;100.00;102853.84;4999766;28;20042;-64
2022/12/18 00:09:30;;;;;;;48.35;22.55;;;;;;;-3.48;100.00;102840.19;4969635;28;20070;-64
2022/12/18 00:12:06;;;;;;;47.85;21.35;;;;;;;-3.54;100.00;102835.09;4998502;28;20064;-64
2022/12/18 00:14:44;;;;;;;46.22;22.00;;;;;;;-3.60;100.00;102831.69;4988025;28;20054;-65
2022/12/18 00:17:10;;;;;;;52.40;24.65;;;;;;;-3.63;100.00;102830.84;4972243;28;20081;-64
2022/12/18 00:19:37;;;;;;;51.55;22.95;;;;;;;-3.72;100.00;102831.75;4997938;28;20578;-65
2022/12/18 00:22:03;;;;;;;49.88;24.38;;;;;;;-3.72;100.00;102839.44;4986956;28;20137;-64
2022/12/18 00:24:30;;;;;;;54.00;23.65;;;;;;;-3.75;100.00;102836.03;4995840;28;20053;-64
2022/12/18 00:26:56;;;;;;;49.53;22.50;;;;;;;-3.75;100.00;102828.31;4990177;28;20050;-64
2022/12/18 00:29:23;;;;;;;47.65;22.25;;;;;;;-3.76;100.00;102842.88;4994782;28;20115;-64
2022/12/18 00:31:49;;;;;;;49.70;22.77;;;;;;;-3.81;100.00;102835.16;4984047;28;20068;-64
2022/12/18 00:34:15;;;;;;;49.20;22.00;;;;;;;-3.80;100.00;102834.31;4995500;28;20057;-64
2022/12/18 00:36:42;;;;;;;51.92;23.67;;;;;;;-3.77;100.00;102821.47;4998684;28;20041;-64
2022/12/18 00:39:10;;;;;;;51.53;23.45;;;;;;;-3.69;100.00;102820.59;4986500;28;20105;-64
2022/12/18 00:44:22;;;;;;;49.25;23.38;;;;;;;-3.69;100.00;102815.47;4983826;28;20057;-64
2022/12/18 00:46:48;;;;;;;50.70;22.33;;;;;;;-3.74;100.00;102824.88;4992938;28;20812;-65
2022/12/18 00:49:17;;;;;;;49.67;23.08;;;;;;;-3.75;100.00;102830.88;4985718;28;20475;-64
2022/12/18 00:51:45;;;;;;;53.38;23.13;;;;;;;-3.81;100.00;102827.47;4998303;28;20475;-65
2022/12/18 00:54:11;;;;;;;45.47;21.85;;;;;;;-3.80;100.00;102823.22;4996238;28;20061;-65
2022/12/18 00:56:38;;;;;;;46.58;22.08;;;;;;;-3.80;100.00;102839.44;4998685;28;20068;-64
2022/12/18 00:59:15;;;;;;;52.80;24.92;;;;;;;-3.86;100.00;102839.47;4986602;28;20050;-64
2022/12/18 01:01:41;;;;;;;44.65;21.73;;;;;;;-3.89;100.00;102829.22;4979609;28;20050;-65
2022/12/18 01:04:08;;;;;;;45.22;21.77;;;;;;;-3.92;100.00;102828.38;4993797;28;20058;-64
2022/12/18 01:06:34;;;;;;;44.90;21.15;;;;;;;-4.02;100.00;102833.53;4991803;28;20096;-63
2022/12/18 01:09:02;;;;;;;47.60;22.08;;;;;;;-4.05;100.00;102842.94;4986337;28;20490;-65
2022/12/18 01:11:28;;;;;;;41.08;21.02;;;;;;;-4.07;100.00;102845.50;4987115;28;20182;-65
2022/12/18 01:13:55;;;;;;;48.47;22.25;;;;;;;-4.12;100.00;102820.72;4978275;28;20050;-65
2022/12/18 01:16:22;;;;;;;45.10;21.92;;;;;;;-4.18;100.00;102822.44;4992141;28;20077;-65
2022/12/18 01:18:53;;;;;;;44.28;20.05;;;;;;;-4.23;100.00;102816.47;4984447;28;20566;-65
2022/12/18 01:21:20;;;;;;;43.92;21.00;;;;;;;-4.23;100.00;102818.19;4992265;28;20112;-65
2022/12/18 01:23:50;;;;;;;44.70;19.75;;;;;;;-4.27;100.00;102812.22;4976166;28;20064;-65
2022/12/18 01:26:16;;;;;;;42.45;20.67;;;;;;;-4.27;100.00;102808.78;4984441;28;20302;-65
2022/12/18 01:28:44;;;;;;;42.55;20.77;;;;;;;-4.23;100.00;102813.06;4987371;28;20126;-65
2022/12/18 01:31:19;;;;;;;41.72;20.00;;;;;;;-4.22;100.00;102812.19;4977075;28;20054;-65
2022/12/18 01:33:47;;;;;;;36.72;19.33;;;;;;;-4.29;100.00;102806.25;4985436;28;20395;-65
2022/12/18 01:36:18;;;;;;;44.73;20.80;;;;;;;-4.30;100.00;102809.66;4978241;28;20073;-65
2022/12/18 01:38:45;;;;;;;41.72;19.08;;;;;;;-4.38;100.00;102826.75;4980367;28;20050;-65
2022/12/18 01:41:13;;;;;;;37.60;19.77;;;;;;;-4.39;100.00;102828.47;4984012;28;20060;-65
2022/12/18 01:44:25;;;;;;;45.38;20.42;;;;;;;-4.34;100.00;102828.44;4979459;28;20053;-65
2022/12/18 01:46:51;;;;;;;41.28;20.10;;;;;;;-4.46;100.00;102834.44;4974216;28;20050;-65
2022/12/18 01:49:18;;;;;;;39.85;18.98;;;;;;;-4.45;100.00;102828.47;4990444;28;20061;-65
2022/12/18 01:51:44;;;;;;;36.42;18.08;;;;;;;-4.47;100.00;102829.31;4981858;28;20054;-65
2022/12/18 01:54:10;;;;;;;37.95;18.83;;;;;;;-4.48;100.00;102832.72;4975350;28;20058;-64
2022/12/18 01:56:37;;;;;;;37.25;19.20;;;;;;;-4.48;100.00;102827.59;4986357;28;20706;-65
2022/12/18 01:59:08;;;;;;;39.65;18.75;;;;;;;-4.49;100.00;102824.16;4986306;28;20107;-65
2022/12/18 02:01:37;;;;;;;37.30;18.58;;;;;;;-4.48;100.00;102822.50;4995238;28;20573;-65
2022/12/18 02:04:25;;;;;;;41.58;20.13;;;;;;;-4.46;100.00;102828.47;4973790;28;20050;-65
2022/12/18 02:06:56;;;;;;;39.92;18.92;;;;;;;-4.47;100.00;102831.84;4969067;28;20054;-65
2022/12/18 02:09:31;;;;;;;37.13;18.15;;;;;;;-4.50;100.00;102829.31;4980779;28;20482;-66
2022/12/18 02:12:13;;;;;;;40.47;17.88;;;;;;;-4.55;100.00;102836.97;4989728;28;20471;-65
2022/12/18 02:14:52;;;;;;;39.17;18.85;;;;;;;-4.62;100.00;102832.72;4987554;28;20430;-65
2022/12/18 02:17:23;;;;;;;34.83;17.85;;;;;;;-4.73;100.00;102830.16;4972575;28;20054;-65
2022/12/18 02:20:08;;;;;;;35.80;17.77;;;;;;;-4.73;100.00;102829.31;4983480;28;20105;-65
2022/12/18 02:22:37;;;;;;;38.47;18.35;;;;;;;-4.80;100.00;102829.31;4977345;28;20076;-65
2022/12/18 02:25:13;;;;;;;37.25;18.33;;;;;;;-4.81;100.00;102829.28;4984649;28;20050;-65
2022/12/18 02:27:43;;;;;;;38.15;18.13;;;;;;;-145.50;100.00;65435.88;4979212;28;20050;-65
2022/12/18 02:30:10;;;;;;;38.22;17.83;;;;;;;-145.50;100.00;65435.88;4979301;28;20054;-64
2022/12/18 02:32:42;;;;;;;33.72;17.73;;;;;;;-145.50;100.00;65435.88;4979642;28;20064;-64
2022/12/18 02:35:14;;;;;;;40.03;18.10;;;;;;;-145.50;100.00;65435.88;4980090;28;20052;-64
2022/12/18 02:37:44;;;;;;;40.30;18.90;;;;;;;-145.50;100.00;65435.88;4976977;28;20061;-64
2022/12/18 02:40:13;;;;;;;45.90;20.90;;;;;;;-145.50;100.00;65435.88;4981434;28;20054;-65
2022/12/18 02:42:40;;;;;;;41.70;19.25;;;;;;;-145.50;100.00;65435.88;4982928;28;20483;-65
2022/12/18 02:45:07;;;;;;;38.75;18.33;;;;;;;-145.50;100.00;65435.88;4976818;28;20065;-65
2022/12/18 02:47:37;;;;;;;40.75;19.50;;;;;;;-145.50;100.00;65435.88;4969927;28;20054;-65
2022/12/18 02:50:13;;;;;;;40.40;19.10;;;;;;;-145.50;100.00;65435.88;4971187;28;20054;-65
2022/12/18 02:52:49;;;;;;;38.22;18.42;;;;;;;-145.50;100.00;65435.88;4985885;28;20054;-64
2022/12/18 02:55:26;;;;;;;41.80;18.27;;;;;;;-145.50;100.00;65435.88;4979682;28;20056;-65
2022/12/18 02:58:18;;;;;;;42.47;19.83;;;;;;;-145.50;100.00;65435.88;4977277;28;20038;-64
2022/12/18 03:00:58;;;;;;;40.55;16.95;;;;;;;-145.50;100.00;65435.88;4985926;28;20491;-64
2022/12/18 03:03:32;;;;;;;38.95;18.58;;;;;;;-145.50;100.00;65435.88;4967482;28;20123;-64
2022/12/18 03:06:04;;;;;;;38.65;17.45;;;;;;;-145.50;100.00;65435.88;4975938;28;20080;-65
2022/12/18 03:08:38;;;;;;;33.90;16.88;;;;;;;-145.50;100.00;65435.88;4973461;28;20109;-65
2022/12/18 03:11:08;;;;;;;37.50;18.63;;;;;;;-145.50;100.00;65435.88;4984979;28;20084;-64
2022/12/18 03:13:55;;;;;;;37.80;17.73;;;;;;;-145.50;100.00;65435.88;4979089;28;20050;-64
2022/12/18 03:16:26;;;;;;;36.42;17.02;;;;;;;-145.50;100.00;65435.88;4978212;28;20103;-64
2022/12/18 03:18:57;;;;;;;32.88;17.67;;;;;;;-145.50;100.00;65435.88;4971870;28;20053;-65
2022/12/18 03:21:36;;;;;;;34.75;17.05;;;;;;;-145.50;100.00;65435.88;4980961;28;20058;-65
2022/12/18 03:24:07;;;;;;;42.40;17.13;;;;;;;-145.50;100.00;65435.88;4981455;28;20050;-65
2022/12/18 03:26:40;;;;;;;35.58;16.38;;;;;;;-145.50;100.00;65435.88;4982542;28;20069;-64
2022/12/18 03:29:12;;;;;;;33.25;15.50;;;;;;;-145.50;100.00;65435.88;4984887;28;20741;-64
2022/12/18 03:31:43;;;;;;;31.98;15.70;;;;;;;-145.50;100.00;65435.88;4976924;28;20050;-64
2022/12/18 03:34:15;;;;;;;39.50;16.88;;;;;;;-145.50;100.00;65435.88;4976446;28;20082;-64
2022/12/18 03:36:41;;;;;;;34.10;15.77;;;;;;;-145.50;100.00;65435.88;4981927;28;20424;-64
2022/12/18 03:39:07;;;;;;;32.15;15.77;;;;;;;-145.50;100.00;65435.88;4982870;28;20062;-64
2022/12/18 03:41:45;;;;;;;32.10;15.50;;;;;;;-145.50;100.00;65435.88;4980281;28;20050;-64
2022/12/18 03:44:18;;;;;;;31.05;14.85;;;;;;;-145.50;100.00;65435.88;4986104;28;20046;-64
2022/12/18 03:47:03;;;;;;;29.52;14.73;;;;;;;-145.50;100.00;65435.88;4978762;28;20053;-65
2022/12/18 03:49:58;;;;;;;34.67;15.10;;;;;;;-145.50;100.00;65435.88;4979895;28;20046;-65
2022/12/18 03:52:36;;;;;;;33.38;14.32;;;;;;;-145.50;100.00;65435.88;4978713;28;20427;-65
2022/12/18 03:55:04;;;;;;;27.10;14.23;;;;;;;-145.50;100.00;65435.88;4973499;28;20050;-64
2022/12/18 03:57:32;;;;;;;25.25;14.00;;;;;;;-145.50;100.00;65435.88;4987963;28;20055;-64
2022/12/18 04:00:13;;;;;;;27.00;13.70;;;;;;;-145.50;100.00;65435.88;4973011;28;20418;-64
2022/12/18 04:02:44;;;;;;;28.25;13.82;;;;;;;-145.50;100.00;65435.88;4989491;28;20700;-64
2022/12/18 04:05:12;;;;;;;30.20;14.95;;;;;;;-145.50;100.00;65435.88;4979100;28;20050;-64
2022/12/18 04:07:40;;;;;;;28.13;13.40;;;;;;;-145.50;100.00;65435.88;4995565;28;20439;-64
2022/12/18 04:10:08;;;;;;;29.65;14.13;;;;;;;-145.50;100.00;65435.88;4982858;28;20047;-64
2022/12/18 04:12:37;;;;;;;27.40;14.50;;;;;;;-145.50;100.00;65435.88;4976531;28;20162;-64
2022/12/18 04:15:04;;;;;;;27.10;12.60;;;;;;;-145.50;100.00;65435.88;4974569;28;20056;-64
2022/12/18 04:17:31;;;;;;;26.55;13.95;;;;;;;-145.50;100.00;65435.88;4975920;28;20046;-65
2022/12/18 04:19:57;;;;;;;27.58;12.23;;;;;;;-145.50;100.00;65435.88;4990844;28;20072;-63
2022/12/18 04:22:23;;;;;;;25.23;12.93;;;;;;;-145.50;100.00;65435.88;4983727;28;20066;-63
2022/12/18 04:24:50;;;;;;;21.17;11.23;;;;;;;-145.50;100.00;65435.88;4998494;28;20756;-64
2022/12/18 04:27:16;;;;;;;21.90;12.48;;;;;;;-145.50;100.00;65435.88;4989790;28;20047;-63
2022/12/18 04:29:43;;;;;;;28.75;14.07;;;;;;;-145.50;100.00;65435.88;4993223;28;20053;-63
2022/12/18 04:32:09;;;;;;;22.38;11.38;;;;;;;-145.50;100.00;65435.88;4988956;28;20137;-63
2022/12/18 04:34:35;;;;;;;26.90;12.23;;;;;;;-145.50;100.00;65435.88;4963168;28;20058;-63
2022/12/18 04:37:02;;;;;;;32.20;13.13;;;;;;;-145.50;100.00;65435.88;4992597;28;20054;-63
2022/12/18 04:39:28;;;;;;;27.60;12.55;;;;;;;-145.50;100.00;65435.88;4995267;28;20441;-63
2022/12/18 04:41:55;;;;;;;25.05;13.48;;;;;;;-145.50;100.00;65435.88;4984859;28;20058;-64
2022/12/18 04:44:22;;;;;;;23.35;12.57;;;;;;;-145.50;100.00;65435.88;4983893;28;20467;-63
2022/12/18 04:46:48;;;;;;;24.10;12.93;;;;;;;-145.50;100.00;65435.88;4989190;28;20060;-63
2022/12/18 04:49:15;;;;;;;24.45;12.55;;;;;;;-145.50;100.00;65435.88;4990026;28;20096;-64
2022/12/18 04:51:41;;;;;;;27.50;13.45;;;;;;;-145.50;100.00;65435.88;4978383;28;20054;-63
2022/12/18 04:54:08;;;;;;;26.38;13.02;;;;;;;-145.50;100.00;65435.88;4986191;28;20057;-63
2022/12/18 04:56:34;;;;;;;21.13;11.82;;;;;;;-145.50;100.00;65435.88;4979618;28;20062;-63
2022/12/18 04:59:01;;;;;;;26.52;12.32;;;;;;;-145.50;100.00;65435.88;4967453;28;20514;-64
2022/12/18 05:01:27;;;;;;;23.33;12.07;;;;;;;-145.50;100.00;65435.88;4989673;28;20104;-62
2022/12/18 05:04:01;;;;;;;22.65;12.30;;;;;;;-145.50;100.00;65435.88;4989030;28;20131;-64
2022/12/18 05:06:27;;;;;;;27.55;12.43;;;;;;;-145.50;100.00;65435.88;4997287;28;20064;-62
2022/12/18 05:08:53;;;;;;;25.30;11.98;;;;;;;-145.50;100.00;65435.88;4988153;28;20425;-64
2022/12/18 05:11:20;;;;;;;23.20;12.27;;;;;;;-145.50;100.00;65435.88;4976535;28;20062;-63
2022/12/18 05:13:46;;;;;;;19.98;11.52;;;;;;;-145.50;100.00;65435.88;4969011;28;20072;-63
2022/12/18 05:16:13;;;;;;;20.23;10.07;;;;;;;-145.50;100.00;65435.88;4966293;28;20054;-63
2022/12/18 05:18:41;;;;;;;25.70;12.35;;;;;;;-145.50;100.00;65435.88;4995812;28;20068;-63
2022/12/18 05:21:07;;;;;;;19.73;11.18;;;;;;;-145.50;100.00;65435.88;4982333;28;20414;-63
2022/12/18 05:23:34;;;;;;;24.23;12.00;;;;;;;-145.50;100.00;65435.88;4984609;28;20054;-64
2022/12/18 05:26:04;;;;;;;24.40;12.00;;;;;;;-145.50;100.00;65435.88;4978179;28;20555;-64
2022/12/18 05:28:32;;;;;;;23.00;11.98;;;;;;;-145.50;100.00;65435.88;4988841;28;20054;-64
2022/12/18 05:31:01;;;;;;;21.90;11.18;;;;;;;-145.50;100.00;65435.88;4982738;28;20427;-63
2022/12/18 05:33:31;;;;;;;18.65;10.38;;;;;;;-145.50;100.00;65435.88;4981877;28;20053;-63
2022/12/18 05:36:05;;;;;;;27.63;11.73;;;;;;;-145.50;100.00;65435.88;4985732;28;20050;-63
2022/12/18 05:38:33;;;;;;;20.60;10.30;;;;;;;-145.50;100.00;65435.88;4986109;28;20049;-63
2022/12/18 05:40:59;;;;;;;25.00;11.50;;;;;;;-145.50;100.00;65435.88;4989963;28;20046;-63
2022/12/18 05:43:27;;;;;;;22.33;10.50;;;;;;;-145.50;100.00;65435.88;4982963;28;20104;-63
2022/12/18 05:45:54;;;;;;;21.35;11.50;;;;;;;-145.50;100.00;65435.88;4984172;28;20411;-63
2022/12/18 05:48:21;;;;;;;18.23;10.65;;;;;;;-145.50;100.00;65435.88;4995879;28;20424;-62
2022/12/18 05:50:49;;;;;;;19.42;10.80;;;;;;;-145.50;100.00;65435.88;4984083;28;20058;-63
2022/12/18 05:53:19;;;;;;;24.05;10.88;;;;;;;-145.50;100.00;65435.88;4976955;28;20051;-63
2022/12/18 05:55:46;;;;;;;24.33;11.18;;;;;;;-145.50;100.00;65435.88;4988559;28;20050;-63
2022/12/18 05:58:13;;;;;;;19.65;10.00;;;;;;;-145.50;100.00;65435.88;4996636;28;20046;-63
2022/12/18 06:00:43;;;;;;;24.35;9.68;;;;;;;-145.50;100.00;65435.88;4993975;28;20060;-62
2022/12/18 06:03:10;;;;;;;22.15;9.85;;;;;;;-145.50;100.00;65435.88;4988148;28;20051;-63
2022/12/18 06:05:39;;;;;;;20.23;10.18;;;;;;;-145.50;100.00;65435.88;4975830;28;20082;-63
2022/12/18 06:08:06;;;;;;;21.50;10.18;;;;;;;-145.50;100.00;65435.88;4994890;28;20042;-64
2022/12/18 06:10:33;;;;;;;18.80;10.15;;;;;;;-145.50;100.00;65435.88;4989176;28;20050;-63
2022/12/18 06:13:00;;;;;;;21.52;10.60;;;;;;;-145.50;100.00;65435.88;4985117;28;20054;-63
2022/12/18 06:15:26;;;;;;;17.95;9.68;;;;;;;-145.50;100.00;65435.88;4986468;28;20083;-63
2022/12/18 06:17:53;;;;;;;17.80;9.88;;;;;;;-145.50;100.00;65435.88;4965036;28;20470;-63
2022/12/18 06:20:19;;;;;;;18.67;10.50;;;;;;;-145.50;100.00;65435.88;4983717;28;20407;-63
2022/12/18 06:22:46;;;;;;;23.75;10.60;;;;;;;-145.50;100.00;65435.88;4982158;28;20077;-63
2022/12/18 06:25:12;;;;;;;19.98;10.38;;;;;;;-145.50;100.00;65435.88;4992524;28;20050;-63
2022/12/18 06:27:39;;;;;;;23.20;11.23;;;;;;;-145.50;100.00;65435.88;4964213;28;20101;-63
2022/12/18 06:30:08;;;;;;;20.90;9.68;;;;;;;-145.50;100.00;65435.88;4987572;28;20499;-63
2022/12/18 06:32:34;;;;;;;21.40;10.98;;;;;;;-145.50;100.00;65435.88;4983366;28;20517;-63
2022/12/18 06:35:01;;;;;;;17.77;9.73;;;;;;;-145.50;100.00;65435.88;4978607;28;20053;-64
2022/12/18 06:37:28;;;;;;;19.30;10.73;;;;;;;-145.50;100.00;65435.88;4994675;28;20475;-63
2022/12/18 06:39:54;;;;;;;20.40;10.98;;;;;;;-145.50;100.00;65435.88;4991984;28;20128;-63
2022/12/18 06:42:22;;;;;;;19.48;10.45;;;;;;;-145.50;100.00;65435.88;4987893;28;20518;-63
2022/12/18 06:44:48;;;;;;;20.98;10.70;;;;;;;-145.50;100.00;65435.88;4980566;28;20053;-64
2022/12/18 06:47:14;;;;;;;17.05;10.30;;;;;;;-145.50;100.00;65435.88;4984433;28;20046;-63
2022/12/18 06:49:41;;;;;;;19.98;9.93;;;;;;;-145.50;100.00;65435.88;4994569;28;20050;-63
2022/12/18 06:52:07;;;;;;;19.25;10.43;;;;;;;-145.50;100.00;65435.88;4986134;28;20092;-64
2022/12/18 06:54:33;;;;;;;18.13;9.93;;;;;;;-145.50;100.00;65435.88;4992662;28;20064;-63
2022/12/18 06:57:00;;;;;;;19.35;9.73;;;;;;;-145.50;100.00;65435.88;4988108;28;20108;-64
2022/12/18 06:59:26;;;;;;;19.15;10.20;;;;;;;-145.50;100.00;65435.88;4985906;28;20073;-63
2022/12/18 07:01:53;;;;;;;18.88;10.10;;;;;;;-145.50;100.00;65435.88;4974690;28;20469;-63
2022/12/18 07:04:20;;;;;;;24.48;10.77;;;;;;;-145.50;100.00;65435.88;4986953;28;20054;-63
2022/12/18 07:06:46;;;;;;;19.05;10.57;;;;;;;-145.50;100.00;65435.88;4987735;28;20045;-63
2022/12/18 07:09:12;;;;;;;17.70;10.13;;;;;;;-145.50;100.00;65435.88;4979281;28;20086;-63
2022/12/18 07:11:39;;;;;;;18.17;9.13;;;;;;;-145.50;100.00;65435.88;4983472;28;20190;-63
2022/12/18 07:14:05;;;;;;;21.00;10.23;;;;;;;-145.50;100.00;65435.88;4972362;28;20053;-64
2022/12/18 07:16:31;;;;;;;18.27;9.60;;;;;;;-145.50;100.00;65435.88;4979742;28;20050;-64
2022/12/18 07:18:58;;;;;;;21.40;8.93;;;;;;;-145.50;100.00;65435.88;4977930;28;20038;-63
2022/12/18 07:21:25;;;;;;;18.33;9.73;;;;;;;-145.50;100.00;65435.88;4985324;28;20112;-64
2022/12/18 07:23:52;;;;;;;20.40;10.73;;;;;;;-145.50;100.00;65435.88;4983883;28;20060;-63
2022/12/18 07:26:20;;;;;;;18.35;9.88;;;;;;;-145.50;100.00;65435.88;4967126;28;20047;-63
2022/12/18 07:28:47;;;;;;;20.95;10.38;;;;;;;-145.50;100.00;65435.88;4980592;28;20050;-64
2022/12/18 07:31:20;;;;;;;16.98;9.77;;;;;;;-145.50;100.00;65435.88;4977147;28;20878;-63
2022/12/18 07:33:47;;;;;;;16.98;10.38;;;;;;;-145.50;100.00;65435.88;4986359;28;20062;-64
2022/12/18 07:36:14;;;;;;;15.93;10.00;;;;;;;-145.50;100.00;65435.88;4985612;28;20462;-63
2022/12/18 07:38:41;;;;;;;19.60;10.02;;;;;;;-145.50;100.00;65435.88;4991254;28;20414;-63
2022/12/18 07:41:11;;;;;;;16.38;9.82;;;;;;;-145.50;100.00;65435.88;4980064;28;20049;-63
2022/12/18 07:43:38;;;;;;;17.10;8.65;;;;;;;-145.50;100.00;65435.88;4955055;28;20057;-63
2022/12/18 07:46:06;;;;;;;19.77;10.00;;;;;;;-145.50;100.00;65435.88;4985777;28;20495;-64
2022/12/18 07:48:33;;;;;;;17.77;9.25;;;;;;;-145.50;100.00;65435.88;4979336;28;20050;-64
2022/12/18 07:51:04;;;;;;;21.48;10.25;;;;;;;-145.50;100.00;65435.88;4983971;28;20065;-63
2022/12/18 07:53:32;;;;;;;20.15;11.05;;;;;;;-145.50;100.00;65435.88;4976696;28;20050;-63
2022/12/18 07:56:01;;;;;;;17.75;9.68;;;;;;;-145.50;100.00;65435.88;4988756;28;21235;-63
2022/12/18 07:58:48;;;;;;;15.20;8.65;;;;;;;-145.50;100.00;65435.88;4977175;28;20041;-63
2022/12/18 08:01:14;;;;;;;21.73;10.02;;;;;;;-145.50;100.00;65435.88;4988964;28;20061;-63
2022/12/18 08:03:41;;;;;;;17.10;9.77;;;;;;;-145.50;100.00;65435.88;4979480;28;20491;-62
2022/12/18 08:06:09;;;;;;;18.15;9.23;;;;;;;-145.50;100.00;65435.88;4994638;28;20057;-62
2022/12/18 08:08:36;;;;;;;16.53;8.13;;;;;;;-145.50;100.00;65435.88;4986448;28;20105;-62
2022/12/18 08:11:03;;;;;;;16.48;8.90;;;;;;;-145.50;100.00;65435.88;4965434;28;20124;-62
2022/12/18 08:13:29;;;;;;;14.85;8.73;;;;;;;-145.50;100.00;65435.88;4976179;28;20320;-63
2022/12/18 08:16:05;;;;;;;18.98;8.38;;;;;;;-4.81;100.00;102829.28;4985775;28;20137;-63
2022/12/18 08:18:33;;;;;;;14.45;7.63;;;;;;;-4.55;100.00;102651.72;4993109;28;20053;-64
2022/12/18 08:21:11;;;;;;;16.15;9.43;;;;;;;-4.48;100.00;102655.97;4993099;28;20077;-63
2022/12/18 08:23:38;;;;;;;19.15;9.50;;;;;;;-4.44;100.00;102661.06;4973093;28;20210;-63
2022/12/18 08:26:10;;;;;;;16.38;9.73;;;;;;;-4.41;100.00;102661.09;4988099;28;20069;-64
2022/12/18 08:28:36;;;;;;;16.23;8.88;;;;;;;-4.39;100.00;102656.81;4964778;28;20061;-63
2022/12/18 08:31:03;;;;;;;16.52;9.18;;;;;;;-4.33;100.00;102650.81;4991285;28;20486;-64
2022/12/18 08:33:30;;;;;;;17.20;9.55;;;;;;;-4.22;100.00;102646.47;4986390;28;20054;-64
2022/12/18 08:35:58;;;;;;;19.80;9.65;;;;;;;-4.12;100.00;102638.75;4988981;28;20053;-64
2022/12/18 08:38:24;;;;;;;17.80;9.07;;;;;;;-4.13;100.00;102637.91;4982719;28;20506;-64
2022/12/18 08:40:59;;;;;;;17.42;9.35;;;;;;;-4.01;100.00;102642.97;5002601;28;20131;-64
2022/12/18 08:46:11;;;;;;;15.45;8.32;;;;;;;-3.83;100.00;102651.41;4982954;28;20047;-62
2022/12/18 08:48:38;;;;;;;19.55;9.38;;;;;;;-3.75;100.00;102641.94;4970109;28;20055;-63
2022/12/18 08:51:05;;;;;;;16.08;8.07;;;;;;;-3.61;100.00;102650.44;4970951;28;20050;-63
2022/12/18 08:53:31;;;;;;;11.68;6.35;;;;;;;-3.46;100.00;102644.31;4986179;28;20561;-64
2022/12/18 08:56:01;;;;;;;17.33;7.32;;;;;;;-3.35;100.00;102651.06;4983737;28;20043;-65
2022/12/18 08:58:28;;;;;;;14.23;7.80;;;;;;;-3.29;100.00;102653.59;4989953;28;20135;-64
2022/12/18 09:00:54;;;;;;;15.77;9.02;;;;;;;-3.22;100.00;102645.81;4988958;28;20093;-63
2022/12/18 09:03:22;;;;;;;14.25;7.72;;;;;;;-3.16;100.00;102647.50;4987653;28;20054;-63
2022/12/18 09:05:48;;;;;;;15.75;8.05;;;;;;;-3.07;100.00;102649.16;4979651;28;20078;-63
2022/12/18 09:08:15;;;;;;;17.00;8.38;;;;;;;-2.99;100.00;102645.63;4981512;28;20058;-63
2022/12/18 09:10:43;;;;;;;13.18;7.50;;;;;;;-2.86;100.00;102648.06;4989368;28;20054;-63
2022/12/18 09:13:10;;;;;;;19.02;8.55;;;;;;;-2.80;100.00;102655.75;4980531;28;20050;-63
2022/12/18 09:15:53;;;;;;;14.80;7.78;;;;;;;-2.72;100.00;102651.38;4990021;28;20478;-63
2022/12/18 09:18:21;;;;;;;18.48;8.90;;;;;;;-2.69;100.00;102646.19;4983900;28;20459;-64
2022/12/18 09:20:48;;;;;;;14.95;7.78;;;;;;;-2.68;100.00;102647.06;4988032;28;20078;-65
2022/12/18 09:23:14;;;;;;;15.13;7.97;;;;;;;-2.61;100.00;102641.84;4981244;28;20054;-64
2022/12/18 09:25:41;;;;;;;16.45;7.50;;;;;;;-2.55;100.00;102629.78;4984547;28;20053;-62
2022/12/18 09:28:15;;;;;;;11.82;6.10;;;;;;;-2.45;100.00;102636.50;4988673;28;20042;-65
2022/12/18 09:30:44;;;;;;;16.20;7.30;;;;;;;-2.38;100.00;102633.00;4992687;28;20450;-64
2022/12/18 09:33:11;;;;;;;14.10;6.82;;;;;;;-2.28;100.00;102641.44;4981781;28;20307;-63
2022/12/18 09:35:40;;;;;;;14.10;8.10;;;;;;;-2.22;100.00;102643.94;4978633;28;20089;-63
2022/12/18 09:38:08;;;;;;;14.55;7.68;;;;;;;-2.17;100.00;102639.59;4990132;28;20569;-64
2022/12/18 09:40:41;;;;;;;13.07;7.20;;;;;;;-2.12;100.00;102640.38;4992682;28;20058;-64
2022/12/18 09:43:17;;;;;;;14.02;7.63;;;;;;;-2.03;100.00;102629.13;4988104;28;20050;-64
2022/12/18 09:45:49;;;;;;;12.77;7.00;;;;;;;-1.97;100.00;102636.75;4990145;28;20054;-64
2022/12/18 09:48:25;;;;;;;12.60;6.65;;;;;;;-1.93;100.00;102632.44;4983678;28;20122;-64
2022/12/18 09:50:58;;;;;;;13.77;6.63;;;;;;;-1.87;100.00;102625.47;4994133;28;20047;-63
2022/12/18 09:53:30;;;;;;;12.52;7.55;;;;;;;-1.85;100.00;102628.00;4975377;28;20128;-63
2022/12/18 09:55:57;;;;;;;13.55;6.43;;;;;;;-1.85;100.00;102622.88;4988345;28;20049;-64
2022/12/18 09:58:44;;;;;;;16.25;8.20;;;;;;;-1.77;100.00;102621.03;4983443;28;20418;-64
2022/12/18 10:01:18;;;;;;;17.38;7.70;;;;;;;-1.70;100.00;102624.38;4980581;28;20228;-64
2022/12/18 10:03:44;;;;;;;13.43;6.75;;;;;;;-1.68;100.00;102618.31;4979151;28;20787;-65
2022/12/18 10:06:16;;;;;;;14.32;8.75;;;;;;;-1.57;100.00;102605.28;4986898;28;20064;-63
2022/12/18 10:08:48;;;;;;;14.63;7.65;;;;;;;-1.50;100.00;102599.16;4990699;28;20043;-64
2022/12/18 10:11:45;;;;;;;18.45;8.88;;;;;;;-1.54;100.00;102597.53;4985070;28;20054;-64
2022/12/18 10:14:23;;;;;;;15.57;8.27;;;;;;;-1.47;100.00;102604.28;4976064;28;20068;-64
2022/12/18 10:17:11;;;;;;;16.17;8.48;;;;;;;-1.42;100.00;102604.19;4973329;28;20051;-64
2022/12/18 10:19:48;;;;;;;14.88;8.23;;;;;;;-1.40;100.00;102603.28;4991588;28;20137;-63
2022/12/18 10:22:21;;;;;;;17.52;8.38;;;;;;;-1.30;100.00;102585.13;4992983;28;20141;-63
2022/12/18 10:25:01;;;;;;;19.77;8.82;;;;;;;-1.28;100.00;102591.09;4984705;28;20061;-63
2022/12/18 10:27:28;;;;;;;14.57;7.32;;;;;;;-1.20;100.00;102587.53;4980464;28;20050;-63
2022/12/18 10:29:55;;;;;;;12.27;7.47;;;;;;;-1.17;100.00;102578.03;4986177;28;20495;-63
2022/12/18 10:32:27;;;;;;;15.40;7.97;;;;;;;-1.08;100.00;102568.41;4987708;28;20058;-63
2022/12/18 10:34:57;;;;;;;14.32;7.82;;;;;;;-1.08;100.00;102575.28;4983728;28;20060;-64
2022/12/18 10:37:29;;;;;;;12.50;6.75;;;;;;;-0.98;100.00;102568.22;4988704;28;20455;-63
2022/12/18 10:40:08;;;;;;;13.00;7.03;;;;;;;-0.92;100.00;102563.81;4985466;28;20535;-63
2022/12/18 10:42:34;;;;;;;;;;;;;;;-0.94;98.72;102565.59;4986403;28;20058;-63
2022/12/18 10:45:03;;;;;;;14.70;7.63;;;;;;;-0.93;100.00;102553.53;4977647;28;19921;-63
2022/12/18 10:47:30;;;;;;;12.32;6.97;;;;;;;-0.89;99.87;102568.06;4994994;28;20057;-63
2022/12/18 10:49:56;;;;;;;13.80;7.70;;;;;;;-0.78;99.73;102560.09;4980104;28;20092;-63
2022/12/18 10:52:25;;;;;;;13.13;7.40;;;;;;;-0.71;97.32;102553.97;4982269;28;20050;-63
2022/12/18 10:54:56;;;;;;;14.60;8.52;;;;;;;-0.68;96.44;102543.59;4984074;28;20054;-63
2022/12/18 10:57:25;;;;;;;14.80;8.10;;;;;;;-0.62;95.39;102546.03;4969292;28;20054;-64
2022/12/18 10:59:55;;;;;;;15.70;8.10;;;;;;;-0.63;97.01;102531.44;4985264;28;20058;-63
2022/12/18 11:02:39;;;;;;;13.57;6.97;;;;;;;-0.50;96.82;102538.03;4986876;28;20319;-63
2022/12/18 11:05:28;;;;;;;14.80;7.05;;;;;;;-0.43;96.28;102538.78;5000292;28;20045;-63
2022/12/18 11:07:56;;;;;;;12.65;7.38;;;;;;;-0.46;95.66;102534.50;4980474;28;20068;-64
2022/12/18 11:10:28;;;;;;;14.20;7.72;;;;;;;-0.40;96.77;102530.97;4984228;28;20073;-63
2022/12/18 11:12:55;;;;;;;14.95;8.07;;;;;;;-0.40;95.12;102533.53;4970236;28;20051;-64
2022/12/18 11:15:30;;;;;;;15.57;7.45;;;;;;;-0.28;96.22;102529.84;4986931;28;20058;-63
2022/12/18 11:17:56;;;;;;;15.63;8.32;;;;;;;-0.32;95.01;102530.78;4986796;28;20058;-63
2022/12/18 11:20:29;;;;;;;13.05;7.70;;;;;;;-0.33;93.19;102524.78;4980814;28;20046;-63